Terminal Aerodrome Forecast
Issued by NWS Grand Forks, ND

Home | Current Version | Previous Version | Graphics & Text | Print | Product List | Glossary On
Versions: 1 2 3 4 5 6 7 8 9 10 11 12 13 14 15 16 17 18 19 20 21 22 23 24 25 26
950
FTUS43 KFGF 141406 AAB
TAFGFK
TAF AMD
KGFK 141406Z 1414/1512 33007KT P6SM BKN035
      TEMPO 1414/1417 BKN022
     FM141700 34013G20KT P6SM BKN020
     FM150300 33004KT P6SM OVC020
     FM151100 14004KT P6SM OVC020=

USA.gov is the U.S. government's official web portal to all federal, state and local government web resources and services.